createdAt,value
2023-03-05T00:02:07.702Z,13.06
2023-03-05T00:04:34.878Z,12.97
2023-03-05T00:07:02.239Z,12.86
2023-03-05T00:09:29.477Z,12.83
2023-03-05T00:11:56.756Z,12.82
2023-03-05T00:14:25.417Z,12.82
2023-03-05T00:16:52.575Z,12.77
2023-03-05T00:19:19.714Z,12.81
2023-03-05T00:21:46.954Z,12.85
2023-03-05T00:24:16.446Z,12.95
2023-03-05T00:26:44.804Z,12.86
2023-03-05T00:29:15.942Z,12.79
2023-03-05T00:31:45.197Z,12.76
2023-03-05T00:34:15.497Z,12.71
2023-03-05T00:36:44.832Z,12.68
2023-03-05T00:39:13.261Z,12.67
2023-03-05T00:41:40.689Z,12.66
2023-03-05T00:44:08.019Z,12.65
2023-03-05T00:46:36.209Z,12.71
2023-03-05T00:49:05.123Z,12.78
2023-03-05T00:51:32.359Z,12.81
2023-03-05T00:53:59.638Z,12.77
2023-03-05T00:56:26.821Z,12.78
2023-03-05T00:58:54.119Z,12.80
2023-03-05T01:01:21.342Z,12.73
2023-03-05T01:03:48.987Z,12.78
2023-03-05T01:06:17.955Z,12.74
2023-03-05T01:08:45.779Z,12.77
2023-03-05T01:11:13.590Z,12.74
2023-03-05T01:13:40.865Z,12.72
2023-03-05T01:16:08.777Z,12.71
2023-03-05T01:18:38.058Z,12.72
2023-03-05T01:21:05.991Z,12.68
2023-03-05T01:23:34.607Z,12.67
2023-03-05T01:26:01.830Z,12.61
2023-03-05T01:28:29.152Z,12.59
2023-03-05T01:30:56.846Z,12.56
2023-03-05T01:33:24.069Z,12.52
2023-03-05T01:35:51.508Z,12.47
2023-03-05T01:38:18.751Z,12.44
2023-03-05T01:40:47.481Z,12.35
2023-03-05T01:43:24.552Z,12.34
2023-03-05T01:46:37.267Z,12.32
2023-03-05T01:49:15.968Z,12.26
2023-03-05T01:51:51.927Z,12.29
2023-03-05T01:54:25.048Z,12.25
2023-03-05T01:56:59.623Z,12.21
2023-03-05T01:59:27.983Z,12.17
2023-03-05T02:01:57.884Z,12.17
2023-03-05T02:04:34.281Z,12.19
2023-03-05T02:07:02.460Z,12.12
2023-03-05T02:09:29.640Z,12.13
2023-03-05T02:11:58.866Z,12.19
2023-03-05T02:14:27.183Z,12.16
2023-03-05T02:16:54.378Z,12.12
2023-03-05T02:19:21.665Z,12.12
2023-03-05T02:21:50.667Z,12.07
2023-03-05T02:24:33.687Z,12.03
2023-03-05T02:27:02.066Z,11.95
2023-03-05T02:29:31.844Z,11.93
2023-03-05T02:31:59.231Z,11.96
2023-03-05T02:34:26.581Z,11.79
2023-03-05T02:36:55.077Z,11.67
2023-03-05T02:39:22.398Z,11.54
2023-03-05T02:41:49.620Z,11.45
2023-03-05T02:44:16.717Z,11.42
2023-03-05T02:46:43.898Z,11.46
2023-03-05T02:49:11.062Z,11.46
2023-03-05T02:51:38.241Z,11.45
2023-03-05T02:54:07.307Z,11.46
2023-03-05T02:56:34.623Z,11.40
2023-03-05T02:59:01.810Z,11.48
2023-03-05T03:01:29.053Z,11.36
2023-03-05T03:03:56.629Z,11.32
2023-03-05T03:06:23.795Z,11.34
2023-03-05T03:08:50.929Z,11.31
2023-03-05T03:11:19.728Z,11.37
2023-03-05T03:13:46.891Z,11.32
2023-03-05T03:16:15.833Z,11.24
2023-03-05T03:18:43.275Z,11.11
2023-03-05T03:21:17.849Z,11.04
2023-03-05T03:23:45.072Z,11.01
2023-03-05T03:26:12.249Z,11.03
2023-03-05T03:28:40.871Z,11.08
2023-03-05T03:31:08.145Z,10.97
2023-03-05T03:33:35.376Z,10.71
2023-03-05T03:36:04.094Z,10.81
2023-03-05T03:38:31.336Z,10.75
2023-03-05T03:40:58.474Z,10.65
2023-03-05T03:43:25.638Z,10.56
2023-03-05T03:45:54.173Z,10.42
2023-03-05T03:48:21.358Z,10.49
2023-03-05T03:50:48.518Z,10.27
2023-03-05T03:53:15.657Z,10.40
2023-03-05T03:55:43.425Z,10.27
2023-03-05T03:58:11.098Z,10.31
2023-03-05T04:00:39.586Z,10.04
2023-03-05T04:03:08.357Z,10.15
2023-03-05T04:05:35.560Z,10.27
2023-03-05T04:08:02.960Z,10.19
2023-03-05T04:10:30.163Z,10.26
2023-03-05T04:12:57.306Z,10.32
2023-03-05T04:15:24.498Z,10.32
2023-03-05T04:17:51.598Z,10.47
2023-03-05T04:20:20.419Z,10.50
2023-03-05T04:22:48.177Z,10.49
2023-03-05T04:25:15.457Z,10.48
2023-03-05T04:27:42.678Z,10.49
2023-03-05T04:30:13.674Z,10.49
2023-03-05T04:32:41.243Z,10.53
2023-03-05T04:35:09.392Z,10.62
2023-03-05T04:37:38.509Z,10.59
2023-03-05T04:40:07.314Z,10.68
2023-03-05T04:42:34.533Z,10.68
2023-03-05T04:45:01.772Z,10.61
2023-03-05T04:47:28.870Z,10.53
2023-03-05T04:49:56.014Z,10.45
2023-03-05T04:52:23.227Z,10.44
2023-03-05T04:54:51.747Z,10.35
2023-03-05T04:57:18.931Z,10.38
2023-03-05T04:59:46.007Z,10.37
2023-03-05T05:02:13.170Z,10.38
2023-03-05T05:04:40.369Z,10.29
2023-03-05T05:07:07.602Z,10.29
2023-03-05T05:09:35.174Z,10.32
2023-03-05T05:12:04.418Z,10.30
2023-03-05T05:14:31.510Z,10.28
2023-03-05T05:16:58.790Z,10.28
2023-03-05T05:19:25.960Z,10.24
2023-03-05T05:21:53.187Z,10.28
2023-03-05T05:24:20.269Z,10.25
2023-03-05T05:26:47.435Z,10.29
2023-03-05T05:29:16.052Z,10.21
2023-03-05T05:31:43.218Z,10.28
2023-03-05T05:34:10.475Z,10.22
2023-03-05T05:36:37.620Z,10.23
2023-03-05T05:39:05.682Z,10.20
2023-03-05T05:41:32.929Z,10.17
2023-03-05T05:44:00.145Z,10.16
2023-03-05T05:46:28.719Z,10.21
2023-03-05T05:48:55.949Z,10.03
2023-03-05T05:51:24.117Z,9.98
2023-03-05T05:53:52.157Z,9.92
2023-03-05T05:56:19.587Z,9.87
2023-03-05T05:58:49.350Z,9.84
2023-03-05T06:01:19.672Z,9.77
2023-03-05T06:03:48.827Z,9.80
2023-03-05T06:06:18.848Z,9.88
2023-03-05T06:08:46.690Z,9.93
2023-03-05T06:11:14.418Z,9.93
2023-03-05T06:13:42.040Z,9.84
2023-03-05T06:16:15.717Z,9.88
2023-03-05T06:18:42.975Z,9.78
2023-03-05T06:21:14.097Z,9.88
2023-03-05T06:23:42.031Z,9.89
2023-03-05T06:26:10.735Z,9.93
2023-03-05T06:28:37.871Z,9.89
2023-03-05T06:31:07.595Z,9.92
2023-03-05T06:33:35.529Z,10.03
2023-03-05T06:36:04.854Z,10.11
2023-03-05T06:38:34.174Z,10.15
2023-03-05T06:41:02.495Z,10.19
2023-03-05T06:43:29.688Z,10.23
2023-03-05T06:46:02.753Z,10.24
2023-03-05T06:48:30.129Z,10.22
2023-03-05T06:50:57.694Z,10.31
2023-03-05T06:53:25.453Z,10.40
2023-03-05T06:55:54.932Z,10.51
2023-03-05T06:58:23.078Z,10.48
2023-03-05T07:00:50.274Z,10.54
2023-03-05T07:03:17.374Z,10.43
2023-03-05T07:05:44.755Z,10.47
2023-03-05T07:08:11.923Z,10.61
2023-03-05T07:10:40.794Z,10.71
2023-03-05T07:13:10.516Z,10.71
2023-03-05T07:15:40.579Z,10.88
2023-03-05T07:18:08.274Z,10.96
2023-03-05T07:20:36.580Z,11.07
2023-03-05T07:23:04.552Z,11.19
2023-03-05T07:25:32.574Z,11.21
2023-03-05T07:27:59.613Z,11.38
2023-03-05T07:30:28.212Z,11.36
2023-03-05T07:32:55.436Z,11.46
2023-03-05T07:35:22.725Z,11.54
2023-03-05T07:37:49.973Z,11.64
2023-03-05T07:40:18.232Z,11.66
2023-03-05T07:42:45.326Z,11.72
2023-03-05T07:45:12.586Z,11.71
2023-03-05T07:47:41.112Z,11.79
2023-03-05T07:50:09.878Z,11.81
2023-03-05T07:52:37.086Z,11.75
2023-03-05T07:55:05.287Z,11.89
2023-03-05T07:57:32.495Z,12.03
2023-03-05T07:59:59.627Z,11.94
2023-03-05T08:02:26.800Z,11.88
2023-03-05T08:04:55.412Z,11.84
2023-03-05T08:07:22.654Z,11.66
2023-03-05T08:09:49.811Z,11.79
2023-03-05T08:12:16.929Z,11.96
2023-03-05T08:14:44.128Z,11.98
2023-03-05T08:17:11.290Z,12.05
2023-03-05T08:19:38.471Z,12.29
2023-03-05T08:22:07.049Z,12.23
2023-03-05T08:24:34.246Z,12.41
2023-03-05T08:27:01.443Z,12.39
2023-03-05T08:29:28.527Z,12.43
2023-03-05T08:31:55.726Z,12.02
2023-03-05T08:34:22.947Z,12.21
2023-03-05T08:36:50.188Z,12.29
2023-03-05T08:39:19.146Z,12.13
2023-03-05T08:41:46.252Z,12.17
2023-03-05T08:44:13.733Z,12.29
2023-03-05T08:46:41.766Z,12.26
2023-03-05T08:49:10.092Z,12.28
2023-03-05T08:51:37.246Z,12.43
2023-03-05T08:54:04.526Z,12.52
2023-03-05T08:56:33.908Z,12.34
2023-03-05T08:59:01.372Z,13.21
2023-03-05T09:01:28.695Z,13.88
2023-03-05T09:03:55.972Z,14.44
2023-03-05T09:06:23.276Z,14.82
2023-03-05T09:08:50.470Z,15.03
2023-03-05T09:11:18.319Z,15.02
2023-03-05T09:13:46.970Z,14.79
2023-03-05T09:16:17.253Z,14.78
2023-03-05T09:18:45.239Z,14.93
2023-03-05T09:21:16.016Z,14.86
2023-03-05T09:23:44.508Z,14.49
2023-03-05T09:26:13.551Z,14.23
2023-03-05T09:28:41.535Z,13.95
2023-03-05T09:31:11.496Z,13.82
2023-03-05T09:33:40.016Z,13.97
2023-03-05T09:36:22.366Z,13.79
2023-03-05T09:38:50.324Z,13.50
2023-03-05T09:41:29.287Z,13.30
2023-03-05T09:44:11.267Z,13.36
2023-03-05T09:46:52.390Z,13.42
2023-03-05T09:49:32.477Z,13.38
2023-03-05T09:52:07.733Z,13.38
2023-03-05T09:54:42.127Z,13.48
2023-03-05T09:57:17.828Z,13.36
2023-03-05T09:59:51.005Z,13.26
2023-03-05T10:02:26.415Z,13.19
2023-03-05T10:05:00.222Z,13.17
2023-03-05T10:07:32.240Z,13.13
2023-03-05T10:10:02.309Z,13.13
2023-03-05T10:12:40.359Z,13.23
2023-03-05T10:15:12.984Z,13.42
2023-03-05T10:18:07.703Z,13.60
2023-03-05T10:20:57.647Z,13.44
2023-03-05T10:24:01.465Z,13.47
2023-03-05T10:26:52.632Z,13.64
2023-03-05T10:29:40.147Z,13.41
2023-03-05T10:32:22.620Z,13.62
2023-03-05T10:35:14.364Z,13.66
2023-03-05T10:38:21.718Z,13.70
2023-03-05T10:40:54.646Z,13.89
2023-03-05T10:43:34.560Z,13.61
2023-03-05T10:46:04.469Z,13.95
2023-03-05T10:48:41.265Z,14.08
2023-03-05T10:51:17.394Z,14.31
2023-03-05T10:53:54.918Z,14.45
2023-03-05T10:56:25.606Z,14.54
2023-03-05T10:58:53.871Z,14.69
2023-03-05T11:01:25.291Z,15.06
2023-03-05T11:03:56.983Z,14.86
2023-03-05T11:06:33.765Z,14.72
2023-03-05T11:09:19.589Z,14.71
2023-03-05T11:12:05.040Z,14.50
2023-03-05T11:14:33.387Z,14.38
2023-03-05T11:17:01.581Z,14.34
2023-03-05T11:19:31.051Z,14.47
2023-03-05T11:22:16.389Z,15.01
2023-03-05T11:24:44.160Z,15.29
2023-03-05T11:27:31.660Z,15.21
2023-03-05T11:29:59.520Z,15.09
2023-03-05T11:32:28.502Z,14.94
2023-03-05T11:34:56.641Z,15.13
2023-03-05T11:37:29.040Z,15.35
2023-03-05T11:40:18.400Z,15.74
2023-03-05T11:42:50.081Z,15.81
2023-03-05T11:45:19.482Z,15.54
2023-03-05T11:47:50.550Z,15.51
2023-03-05T11:50:23.664Z,16.00
2023-03-05T11:52:56.180Z,16.36
2023-03-05T11:55:30.830Z,16.25
2023-03-05T11:58:17.685Z,16.07
2023-03-05T12:00:47.299Z,16.01
2023-03-05T12:03:18.790Z,15.47
2023-03-05T12:05:51.353Z,16.08
2023-03-05T12:08:27.746Z,16.58
2023-03-05T12:10:56.116Z,16.56
2023-03-05T12:13:29.427Z,16.44
2023-03-05T12:16:09.874Z,16.63
2023-03-05T12:18:48.565Z,16.71
2023-03-05T12:21:26.788Z,16.47
2023-03-05T12:23:57.840Z,16.27
2023-03-05T12:27:06.593Z,16.21
2023-03-05T12:29:44.598Z,16.24
2023-03-05T12:32:57.458Z,16.07
2023-03-05T12:35:28.255Z,15.82
2023-03-05T12:38:28.193Z,16.05
2023-03-05T12:41:27.460Z,15.95
2023-03-05T12:44:17.234Z,16.09
2023-03-05T12:46:45.939Z,15.61
2023-03-05T12:49:29.296Z,15.71
2023-03-05T12:51:58.335Z,15.43
2023-03-05T12:54:31.759Z,15.88
2023-03-05T12:57:01.597Z,16.12
2023-03-05T12:59:42.489Z,15.84
2023-03-05T13:02:26.932Z,15.76
2023-03-05T13:05:00.340Z,16.33
2023-03-05T13:07:27.461Z,16.56
2023-03-05T13:09:56.963Z,16.32
2023-03-05T13:12:26.284Z,16.32
2023-03-05T13:15:03.112Z,15.94
2023-03-05T13:17:35.053Z,16.13
2023-03-05T13:20:23.833Z,16.09
2023-03-05T13:23:13.333Z,16.37
2023-03-05T13:25:40.551Z,16.19
2023-03-05T13:28:13.030Z,15.68
2023-03-05T13:30:46.051Z,15.74
2023-03-05T13:33:19.355Z,15.34
2023-03-05T13:35:47.300Z,15.08
2023-03-05T13:38:26.691Z,15.20
2023-03-05T13:41:21.648Z,15.08
2023-03-05T13:43:51.151Z,15.02
2023-03-05T13:46:28.289Z,15.06
2023-03-05T13:48:55.627Z,14.56
2023-03-05T13:51:22.869Z,14.77
2023-03-05T13:53:51.332Z,15.09
2023-03-05T13:56:20.789Z,15.01
2023-03-05T13:58:50.947Z,15.03
2023-03-05T14:01:32.112Z,15.01
2023-03-05T14:04:07.187Z,15.16
2023-03-05T14:06:42.614Z,15.08
2023-03-05T14:09:21.210Z,14.95
2023-03-05T14:12:01.804Z,14.98
2023-03-05T14:14:31.102Z,14.77
2023-03-05T14:17:30.877Z,14.19
2023-03-05T14:20:09.120Z,14.60
2023-03-05T14:22:39.022Z,14.27
2023-03-05T14:25:32.932Z,14.90
2023-03-05T14:28:01.769Z,14.75
2023-03-05T14:30:29.394Z,14.47
2023-03-05T14:33:00.724Z,14.60
2023-03-05T14:35:30.270Z,14.71
2023-03-05T14:37:59.805Z,14.60
2023-03-05T14:40:30.141Z,14.88
2023-03-05T14:42:58.626Z,14.75
2023-03-05T14:45:28.278Z,14.91
2023-03-05T14:48:00.280Z,14.93
2023-03-05T14:50:29.934Z,14.99
2023-03-05T14:53:00.416Z,14.90
2023-03-05T14:55:30.040Z,14.92
2023-03-05T14:58:02.121Z,15.08
2023-03-05T15:00:29.494Z,15.10
2023-03-05T15:02:58.454Z,14.85
2023-03-05T15:05:25.873Z,14.97
2023-03-05T15:07:53.515Z,15.00
2023-03-05T15:10:24.175Z,14.96
2023-03-05T15:12:52.712Z,14.92
2023-03-05T15:15:21.737Z,15.08
2023-03-05T15:17:51.034Z,14.99
2023-03-05T15:20:21.950Z,15.04
2023-03-05T15:22:49.173Z,14.81
2023-03-05T15:25:17.276Z,14.82
2023-03-05T15:27:45.329Z,14.89
2023-03-05T15:30:22.874Z,14.99
2023-03-05T15:32:50.250Z,15.00
2023-03-05T15:35:17.756Z,15.03
2023-03-05T15:37:46.665Z,15.01
2023-03-05T15:40:14.563Z,15.10
2023-03-05T15:42:41.986Z,15.15
2023-03-05T15:45:09.962Z,15.11
2023-03-05T15:47:37.411Z,14.98
2023-03-05T15:50:05.326Z,14.87
2023-03-05T15:52:32.673Z,14.83
2023-03-05T15:55:02.662Z,14.97
2023-03-05T15:57:29.837Z,15.05
2023-03-05T15:59:56.955Z,15.03
2023-03-05T16:02:24.100Z,15.03
2023-03-05T16:04:51.232Z,15.05
2023-03-05T16:07:19.322Z,15.02
2023-03-05T16:09:51.355Z,15.01
2023-03-05T16:12:26.278Z,15.01
2023-03-05T16:14:53.521Z,15.02
2023-03-05T16:17:23.977Z,15.03
2023-03-05T16:19:55.940Z,15.02
2023-03-05T16:22:23.240Z,15.04
2023-03-05T16:24:50.417Z,15.02
2023-03-05T16:27:19.041Z,14.93
2023-03-05T16:29:46.240Z,14.98
2023-03-05T16:32:13.442Z,15.01
2023-03-05T16:34:40.571Z,14.98
2023-03-05T16:37:07.717Z,14.82
2023-03-05T16:39:34.873Z,14.96
2023-03-05T16:42:02.127Z,15.02
2023-03-05T16:44:30.849Z,14.98
2023-03-05T16:46:58.119Z,14.96
2023-03-05T16:49:25.478Z,14.96
2023-03-05T16:51:52.596Z,14.93
2023-03-05T16:54:19.745Z,14.84
2023-03-05T16:56:46.856Z,14.83
2023-03-05T16:59:14.203Z,14.76
2023-03-05T17:01:42.920Z,14.72
2023-03-05T17:04:10.305Z,14.67
2023-03-05T17:06:37.917Z,14.62
2023-03-05T17:09:05.072Z,14.60
2023-03-05T17:11:32.372Z,14.59
2023-03-05T17:13:59.499Z,14.53
2023-03-05T17:16:26.691Z,14.50
2023-03-05T17:18:55.458Z,14.44
2023-03-05T17:21:22.798Z,14.40
2023-03-05T17:23:50.074Z,14.37
2023-03-05T17:26:19.259Z,14.35
2023-03-05T17:28:46.595Z,14.37
2023-03-05T17:31:14.781Z,14.35
2023-03-05T17:33:42.443Z,14.36
2023-03-05T17:36:16.340Z,14.29
2023-03-05T17:38:44.261Z,14.27
2023-03-05T17:41:12.336Z,14.26
2023-03-05T17:43:40.169Z,14.27
2023-03-05T17:46:07.928Z,14.21
2023-03-05T17:48:35.454Z,14.15
2023-03-05T17:51:02.634Z,14.19
2023-03-05T17:53:31.314Z,14.05
2023-03-05T17:55:58.537Z,14.01
2023-03-05T17:58:25.676Z,13.90
2023-03-05T18:00:52.996Z,13.82
2023-03-05T18:03:20.134Z,13.76
2023-03-05T18:05:47.357Z,13.71
2023-03-05T18:08:14.639Z,13.64
2023-03-05T18:10:43.275Z,13.59
2023-03-05T18:13:10.438Z,13.50
2023-03-05T18:15:37.982Z,13.54
2023-03-05T18:18:05.317Z,13.61
2023-03-05T18:20:35.676Z,13.62
2023-03-05T18:23:05.215Z,13.55
2023-03-05T18:25:32.844Z,13.46
2023-03-05T18:28:02.999Z,13.43
2023-03-05T18:30:30.888Z,13.35
2023-03-05T18:32:58.256Z,13.34
2023-03-05T18:35:26.011Z,13.30
2023-03-05T18:37:53.214Z,13.23
2023-03-05T18:40:22.754Z,13.20
2023-03-05T18:42:50.340Z,13.19
2023-03-05T18:45:21.794Z,13.19
2023-03-05T18:47:49.592Z,13.18
2023-03-05T18:50:18.073Z,13.17
2023-03-05T18:52:46.051Z,13.21
2023-03-05T18:55:16.159Z,13.12
2023-03-05T18:57:43.291Z,13.16
2023-03-05T19:00:14.352Z,13.17
2023-03-05T19:02:43.014Z,13.18
2023-03-05T19:05:12.118Z,13.19
2023-03-05T19:07:39.531Z,13.32
2023-03-05T19:10:10.395Z,13.28
2023-03-05T19:12:39.460Z,13.27
2023-03-05T19:15:07.714Z,13.29
2023-03-05T19:17:34.898Z,13.40
2023-03-05T19:20:04.615Z,13.37
2023-03-05T19:22:32.362Z,13.32
2023-03-05T19:24:59.719Z,13.31
2023-03-05T19:27:27.076Z,13.28
2023-03-05T19:29:54.399Z,13.21
2023-03-05T19:32:21.845Z,13.13
2023-03-05T19:34:49.716Z,13.14
2023-03-05T19:37:18.376Z,13.04
2023-03-05T19:39:45.511Z,12.95
2023-03-05T19:42:12.796Z,12.79
2023-03-05T19:44:39.953Z,12.80
2023-03-05T19:47:07.233Z,12.79
2023-03-05T19:49:34.391Z,12.77
2023-03-05T19:52:02.072Z,12.71
2023-03-05T19:54:30.870Z,12.71
2023-03-05T19:56:58.090Z,12.67
2023-03-05T19:59:26.130Z,12.65
2023-03-05T20:01:54.355Z,12.60
2023-03-05T20:04:23.049Z,12.58
2023-03-05T20:06:51.372Z,12.58
2023-03-05T20:09:19.165Z,12.56
2023-03-05T20:11:47.909Z,12.50
2023-03-05T20:14:15.300Z,12.49
2023-03-05T20:16:43.088Z,12.44
2023-03-05T20:19:16.717Z,12.32
2023-03-05T20:21:45.232Z,12.23
2023-03-05T20:24:14.502Z,12.19
2023-03-05T20:26:44.354Z,12.18
2023-03-05T20:29:17.305Z,12.15
2023-03-05T20:31:45.782Z,12.13
2023-03-05T20:34:16.138Z,12.07
2023-03-05T20:36:43.672Z,12.11
2023-03-05T20:39:11.137Z,12.08
2023-03-05T20:41:40.006Z,12.04
2023-03-05T20:44:08.717Z,11.96
2023-03-05T20:46:40.169Z,11.89
2023-03-05T20:49:07.538Z,12.07
2023-03-05T20:51:37.221Z,15.77
2023-03-05T20:54:07.434Z,16.90
2023-03-05T20:56:36.272Z,17.47
2023-03-05T20:59:06.057Z,17.38
2023-03-05T21:01:35.214Z,15.92
2023-03-05T21:04:04.648Z,15.03
2023-03-05T21:06:33.177Z,14.35
2023-03-05T21:09:01.191Z,13.80
2023-03-05T21:11:28.742Z,13.36
2023-03-05T21:13:56.100Z,12.96
2023-03-05T21:16:27.037Z,12.62
2023-03-05T21:18:55.142Z,12.36
2023-03-05T21:21:24.061Z,12.13
2023-03-05T21:23:51.339Z,11.94
2023-03-05T21:26:20.848Z,11.77
2023-03-05T21:28:48.440Z,11.72
2023-03-05T21:31:19.076Z,11.68
2023-03-05T21:33:50.378Z,11.65
2023-03-05T21:36:18.524Z,11.62
2023-03-05T21:38:48.199Z,11.55
2023-03-05T21:41:16.017Z,11.60
2023-03-05T21:43:43.325Z,11.58
2023-03-05T21:46:10.958Z,11.57
2023-03-05T21:48:38.456Z,11.59
2023-03-05T21:51:09.140Z,11.54
2023-03-05T21:53:36.637Z,11.51
2023-03-05T21:56:05.734Z,11.46
2023-03-05T21:58:34.752Z,11.43
2023-03-05T22:01:02.975Z,11.44
2023-03-05T22:03:30.801Z,11.43
2023-03-05T22:05:58.324Z,11.36
2023-03-05T22:08:25.590Z,11.31
2023-03-05T22:10:53.190Z,11.22
2023-03-05T22:13:21.928Z,11.22
2023-03-05T22:15:52.053Z,11.18
2023-03-05T22:18:22.150Z,11.17
2023-03-05T22:20:49.471Z,11.19
2023-03-05T22:23:18.090Z,11.20
2023-03-05T22:25:45.848Z,11.20
2023-03-05T22:28:13.928Z,11.22
2023-03-05T22:30:46.342Z,11.24
2023-03-05T22:33:14.029Z,11.29
2023-03-05T22:35:42.515Z,11.26
2023-03-05T22:38:11.373Z,11.28
2023-03-05T22:40:43.506Z,11.20
2023-03-05T22:43:11.692Z,11.14
2023-03-05T22:45:39.108Z,11.13
2023-03-05T22:48:08.386Z,11.12
2023-03-05T22:50:35.944Z,11.13
2023-03-05T22:53:03.673Z,11.05
2023-03-05T22:55:30.966Z,10.99
2023-03-05T22:57:58.104Z,11.10
2023-03-05T23:00:25.747Z,11.10
2023-03-05T23:02:53.993Z,11.04
2023-03-05T23:05:22.830Z,11.00
2023-03-05T23:07:50.076Z,11.01
2023-03-05T23:10:20.122Z,10.90
2023-03-05T23:12:49.342Z,10.85
2023-03-05T23:15:18.835Z,10.90
2023-03-05T23:17:46.210Z,10.75
2023-03-05T23:20:15.579Z,10.69
2023-03-05T23:22:45.383Z,10.60
2023-03-05T23:25:15.438Z,10.54
2023-03-05T23:27:43.130Z,10.47
2023-03-05T23:30:12.942Z,10.45
2023-03-05T23:32:40.159Z,10.50
2023-03-05T23:35:10.021Z,10.57
2023-03-05T23:37:37.178Z,10.63
2023-03-05T23:40:09.736Z,10.64
2023-03-05T23:42:37.394Z,10.62
2023-03-05T23:45:06.115Z,10.61
2023-03-05T23:47:35.711Z,10.58
2023-03-05T23:50:03.912Z,10.53
2023-03-05T23:52:31.130Z,10.59
2023-03-05T23:54:58.932Z,10.58
2023-03-05T23:57:27.633Z,10.49
2023-03-05T23:59:54.718Z,10.50
